createdAt,value
2023-12-08T00:02:08.865Z,6.10
2023-12-08T00:04:36.422Z,7.77
2023-12-08T00:07:03.935Z,10.43
2023-12-08T00:09:33.388Z,6.82
2023-12-08T00:12:02.618Z,13.25
2023-12-08T00:14:30.280Z,6.93
2023-12-08T00:16:57.811Z,6.97
2023-12-08T00:19:25.440Z,9.13
2023-12-08T00:21:52.985Z,11.13
2023-12-08T00:24:21.056Z,8.63
2023-12-08T00:26:50.000Z,6.78
2023-12-08T00:29:20.404Z,8.82
2023-12-08T00:31:47.967Z,20.55
2023-12-08T00:34:16.059Z,8.65
2023-12-08T00:36:43.729Z,8.98
2023-12-08T00:39:11.260Z,8.52
2023-12-08T00:41:38.794Z,5.05
2023-12-08T00:44:09.723Z,9.80
2023-12-08T00:46:37.318Z,9.83
2023-12-08T00:49:04.957Z,6.85
2023-12-08T00:51:32.525Z,7.20
2023-12-08T00:54:00.100Z,11.13
2023-12-08T00:56:28.945Z,9.48
2023-12-08T00:58:56.524Z,17.33
2023-12-08T01:01:25.541Z,17.43
2023-12-08T01:03:53.307Z,26.40
2023-12-08T01:06:20.942Z,10.52
2023-12-08T01:08:48.501Z,8.88
2023-12-08T01:11:16.146Z,8.25
2023-12-08T01:13:43.637Z,12.20
2023-12-08T01:16:11.456Z,17.73
2023-12-08T01:18:40.545Z,6.70
2023-12-08T01:21:08.552Z,7.88
2023-12-08T01:23:36.153Z,12.10
2023-12-08T01:26:03.780Z,10.57
2023-12-08T01:28:31.307Z,3.65
2023-12-08T01:30:58.845Z,8.23
2023-12-08T01:33:26.480Z,6.45
2023-12-08T01:36:37.420Z,8.45
2023-12-08T01:38:45.367Z,7.85
2023-12-08T01:41:14.776Z,5.05
2023-12-08T01:43:42.777Z,9.63
2023-12-08T01:46:12.438Z,10.70
2023-12-08T01:48:40.198Z,13.10
2023-12-08T01:51:09.645Z,8.73
2023-12-08T01:53:37.713Z,6.50
2023-12-08T01:56:06.391Z,6.97
2023-12-08T01:58:33.917Z,7.13
2023-12-08T02:01:04.806Z,9.65
2023-12-08T02:03:34.290Z,6.68
2023-12-08T02:06:02.424Z,8.85
2023-12-08T02:08:31.913Z,13.55
2023-12-08T02:10:59.461Z,6.93
2023-12-08T02:13:27.099Z,7.63
2023-12-08T02:15:59.208Z,4.72
2023-12-08T02:18:27.158Z,5.60
2023-12-08T02:20:54.790Z,9.90
2023-12-08T02:23:22.337Z,9.07
2023-12-08T02:25:51.207Z,6.30
2023-12-08T02:28:18.748Z,12.10
2023-12-08T02:30:46.613Z,6.97
2023-12-08T02:33:19.296Z,10.27
2023-12-08T02:35:48.481Z,6.97
2023-12-08T02:38:21.162Z,4.63
2023-12-08T02:40:48.734Z,12.07
2023-12-08T02:43:18.081Z,11.50
2023-12-08T02:45:45.595Z,5.10
2023-12-08T02:48:13.337Z,8.17
2023-12-08T02:50:41.799Z,6.28
2023-12-08T02:53:09.369Z,10.32
2023-12-08T02:55:37.030Z,7.80
2023-12-08T02:58:04.579Z,8.30
2023-12-08T03:00:33.475Z,8.45
2023-12-08T03:03:01.083Z,14.45
2023-12-08T03:05:28.620Z,7.18
2023-12-08T03:07:56.101Z,4.43
2023-12-08T03:10:23.695Z,6.75
2023-12-08T03:12:51.285Z,9.20
2023-12-08T03:15:18.826Z,13.40
2023-12-08T03:17:47.778Z,8.15
2023-12-08T03:20:15.777Z,7.43
2023-12-08T03:22:43.324Z,10.30
2023-12-08T03:25:10.811Z,6.90
2023-12-08T03:27:38.305Z,7.20
2023-12-08T03:30:07.091Z,6.88
2023-12-08T03:32:34.710Z,6.20
2023-12-08T03:35:03.598Z,7.70
2023-12-08T03:37:31.197Z,7.00
2023-12-08T03:39:58.702Z,7.07
2023-12-08T03:42:26.187Z,9.68
2023-12-08T03:44:53.822Z,8.50
2023-12-08T03:47:21.345Z,8.98
2023-12-08T03:49:48.945Z,12.97
2023-12-08T03:52:17.801Z,8.75
2023-12-08T03:54:45.280Z,12.30
2023-12-08T03:57:12.822Z,9.63
2023-12-08T03:59:40.383Z,7.80
2023-12-08T04:02:07.894Z,6.60
2023-12-08T04:04:35.574Z,11.00
2023-12-08T04:07:03.469Z,6.15
2023-12-08T04:09:32.862Z,8.43
2023-12-08T04:12:00.613Z,6.30
2023-12-08T04:14:28.190Z,8.15
2023-12-08T04:16:55.659Z,5.75
2023-12-08T04:19:23.387Z,9.65
2023-12-08T04:21:51.038Z,9.15
2023-12-08T04:24:18.608Z,7.55
2023-12-08T04:26:47.596Z,6.78
2023-12-08T04:29:15.316Z,9.13
2023-12-08T04:31:42.835Z,9.35
2023-12-08T04:34:10.457Z,7.00
2023-12-08T04:36:38.068Z,7.93
2023-12-08T04:39:05.748Z,7.57
2023-12-08T04:41:33.341Z,7.65
2023-12-08T04:44:02.175Z,10.45
2023-12-08T04:46:29.652Z,14.97
2023-12-08T04:48:57.223Z,7.78
2023-12-08T04:51:24.826Z,6.10
2023-12-08T04:53:52.335Z,11.52
2023-12-08T04:56:19.817Z,14.63
2023-12-08T04:58:48.928Z,6.20
2023-12-08T05:01:17.762Z,12.80
2023-12-08T05:03:45.336Z,6.57
2023-12-08T05:06:13.013Z,12.23
2023-12-08T05:08:40.828Z,8.07
2023-12-08T05:11:08.733Z,7.20
2023-12-08T05:13:36.325Z,9.55
2023-12-08T05:16:03.838Z,10.88
2023-12-08T05:18:32.797Z,8.45
2023-12-08T05:21:00.476Z,9.30
2023-12-08T05:23:27.990Z,12.83
2023-12-08T05:25:55.545Z,7.80
2023-12-08T05:28:23.067Z,8.10
2023-12-08T05:30:50.815Z,11.80
2023-12-08T05:33:18.545Z,6.25
2023-12-08T05:35:47.573Z,7.47
2023-12-08T05:38:15.067Z,8.38
2023-12-08T05:40:42.552Z,7.55
2023-12-08T05:43:10.058Z,8.93
2023-12-08T05:45:37.558Z,8.68
2023-12-08T05:48:05.774Z,10.23
2023-12-08T05:50:33.464Z,9.80
2023-12-08T05:53:02.363Z,6.03
2023-12-08T05:55:30.224Z,10.07
2023-12-08T05:57:57.954Z,8.93
2023-12-08T06:00:25.618Z,12.98
2023-12-08T06:02:53.266Z,8.85
2023-12-08T06:05:21.216Z,10.65
2023-12-08T06:07:48.888Z,13.68
2023-12-08T06:10:17.854Z,7.07
2023-12-08T06:12:45.459Z,8.05
2023-12-08T06:15:13.184Z,7.63
2023-12-08T06:17:40.792Z,9.32
2023-12-08T06:20:11.122Z,7.70
2023-12-08T06:22:38.766Z,10.00
2023-12-08T06:25:07.150Z,9.40
2023-12-08T06:27:37.305Z,11.02
2023-12-08T06:30:06.178Z,9.88
2023-12-08T06:32:33.927Z,7.32
2023-12-08T06:35:01.662Z,11.98
2023-12-08T06:37:29.560Z,10.10
2023-12-08T06:39:57.307Z,11.82
2023-12-08T06:42:24.817Z,19.25
2023-12-08T06:44:54.016Z,20.05
2023-12-08T06:47:21.578Z,16.10
2023-12-08T06:49:49.251Z,8.00
2023-12-08T06:52:16.888Z,8.52
2023-12-08T06:54:44.364Z,8.88
2023-12-08T06:57:11.919Z,9.38
2023-12-08T06:59:39.460Z,8.73
2023-12-08T07:02:08.328Z,9.23
2023-12-08T07:04:35.865Z,9.50
2023-12-08T07:07:04.179Z,7.18
2023-12-08T07:09:31.697Z,10.18
2023-12-08T07:11:59.268Z,14.15
2023-12-08T07:14:26.823Z,8.00
2023-12-08T07:16:54.351Z,12.65
2023-12-08T07:19:23.294Z,8.15
2023-12-08T07:21:50.972Z,13.75
2023-12-08T07:24:18.787Z,11.55
2023-12-08T07:26:46.471Z,14.95
2023-12-08T07:29:14.047Z,11.75
2023-12-08T07:31:41.575Z,10.43
2023-12-08T07:34:09.129Z,15.20
2023-12-08T07:36:38.021Z,12.25
2023-12-08T07:39:05.600Z,8.52
2023-12-08T07:41:33.225Z,22.25
2023-12-08T07:44:00.773Z,10.25
2023-12-08T07:46:28.822Z,12.00
2023-12-08T07:48:56.434Z,14.32
2023-12-08T07:51:24.024Z,13.00
2023-12-08T07:53:53.266Z,13.15
2023-12-08T07:56:20.848Z,21.52
2023-12-08T07:58:49.370Z,11.40
2023-12-08T08:01:17.021Z,13.63
2023-12-08T08:03:45.150Z,10.88
2023-12-08T08:06:12.773Z,13.98
2023-12-08T08:08:40.318Z,8.57
2023-12-08T08:11:09.476Z,9.20
2023-12-08T08:13:37.713Z,12.48
2023-12-08T08:16:05.734Z,4.38
2023-12-08T08:18:33.375Z,11.35
2023-12-08T08:21:01.084Z,15.40
2023-12-08T08:23:29.118Z,13.65
2023-12-08T08:25:58.394Z,7.88
2023-12-08T08:28:27.602Z,18.10
2023-12-08T08:30:55.246Z,8.75
2023-12-08T08:33:23.919Z,9.52
2023-12-08T08:35:51.782Z,24.23
2023-12-08T08:38:19.348Z,19.95
2023-12-08T08:40:47.407Z,12.07
2023-12-08T08:43:15.145Z,17.80
2023-12-08T08:45:44.025Z,11.80
2023-12-08T08:48:11.599Z,17.15
2023-12-08T08:50:47.526Z,9.93
2023-12-08T08:53:18.411Z,16.95
2023-12-08T08:55:46.352Z,22.48
2023-12-08T08:58:13.946Z,14.95
2023-12-08T09:00:42.062Z,12.50
2023-12-08T09:03:10.984Z,12.50
2023-12-08T09:05:42.301Z,12.18
2023-12-08T09:08:10.254Z,14.00
2023-12-08T09:10:38.290Z,12.20
2023-12-08T09:13:05.976Z,8.23
2023-12-08T09:15:33.761Z,11.63
2023-12-08T09:18:01.453Z,14.07
2023-12-08T09:20:30.426Z,10.77
2023-12-08T09:22:57.938Z,11.97
2023-12-08T09:25:25.519Z,10.73
2023-12-08T09:27:53.026Z,10.27
2023-12-08T09:30:20.699Z,16.50
2023-12-08T09:32:48.403Z,16.25
2023-12-08T09:35:16.047Z,11.23
2023-12-08T09:37:44.935Z,24.27
2023-12-08T09:40:15.780Z,12.32
2023-12-08T09:42:47.557Z,17.80
2023-12-08T09:45:15.294Z,10.52
2023-12-08T09:47:43.366Z,11.70
2023-12-08T09:50:13.763Z,13.83
2023-12-08T09:52:42.026Z,12.25
2023-12-08T09:55:12.905Z,11.37
2023-12-08T09:57:44.893Z,13.75
2023-12-08T10:00:14.691Z,19.75
2023-12-08T10:02:43.163Z,13.60
2023-12-08T10:05:11.773Z,25.20
2023-12-08T10:07:41.947Z,17.65
2023-12-08T10:10:11.882Z,12.50
2023-12-08T10:12:41.452Z,16.70
2023-12-08T10:15:12.356Z,10.18
2023-12-08T10:17:49.761Z,20.05
2023-12-08T10:20:19.090Z,12.77
2023-12-08T10:22:49.383Z,14.85
2023-12-08T10:25:19.939Z,17.65
2023-12-08T10:27:48.926Z,13.52
2023-12-08T10:30:17.504Z,15.85
2023-12-08T10:32:45.627Z,15.47
2023-12-08T10:35:13.942Z,10.40
2023-12-08T10:37:42.632Z,11.03
2023-12-08T10:40:13.123Z,14.77
2023-12-08T10:42:42.212Z,25.30
2023-12-08T10:45:12.151Z,15.35
2023-12-08T10:47:41.671Z,14.27
2023-12-08T10:50:11.353Z,12.98
2023-12-08T10:52:40.192Z,13.67
2023-12-08T10:55:08.615Z,14.38
2023-12-08T10:57:37.548Z,14.13
2023-12-08T11:00:13.510Z,15.60
2023-12-08T11:02:42.529Z,13.20
2023-12-08T11:05:14.976Z,14.52
2023-12-08T11:07:46.764Z,16.42
2023-12-08T11:10:15.833Z,10.37
2023-12-08T11:12:50.559Z,14.67
2023-12-08T11:15:23.759Z,15.82
2023-12-08T11:17:55.107Z,12.00
2023-12-08T11:20:23.021Z,14.90
2023-12-08T11:22:50.795Z,14.98
2023-12-08T11:25:23.888Z,23.33
2023-12-08T11:27:59.260Z,15.23
2023-12-08T11:30:35.962Z,13.70
2023-12-08T11:33:11.294Z,9.17
2023-12-08T11:35:39.026Z,25.15
2023-12-08T11:38:06.531Z,15.13
2023-12-08T11:40:34.115Z,15.82
2023-12-08T11:43:03.395Z,19.83
2023-12-08T11:45:32.461Z,15.05
2023-12-08T11:48:13.179Z,9.45
2023-12-08T11:50:40.873Z,16.63
2023-12-08T11:53:08.648Z,21.13
2023-12-08T11:55:36.681Z,12.07
2023-12-08T11:58:08.838Z,14.60
2023-12-08T12:00:39.981Z,19.25
2023-12-08T12:03:12.209Z,11.38
2023-12-08T12:05:40.473Z,12.07
2023-12-08T12:08:09.293Z,14.85
2023-12-08T12:10:37.016Z,12.88
2023-12-08T12:13:06.180Z,17.65
2023-12-08T12:15:35.449Z,29.63
2023-12-08T12:18:05.327Z,14.07
2023-12-08T12:20:35.639Z,24.10
2023-12-08T12:23:03.565Z,19.90
2023-12-08T12:25:31.161Z,16.67
2023-12-08T12:27:59.177Z,19.95
2023-12-08T12:30:26.988Z,35.00
2023-12-08T12:32:54.914Z,20.48
2023-12-08T12:35:24.634Z,23.75
2023-12-08T12:37:52.137Z,21.75
2023-12-08T12:40:20.242Z,23.23
2023-12-08T12:42:49.241Z,22.53
2023-12-08T12:45:28.589Z,18.35
2023-12-08T12:48:05.594Z,28.90
2023-12-08T12:50:46.437Z,13.93
2023-12-08T12:53:15.198Z,25.87
2023-12-08T12:55:42.770Z,17.48
2023-12-08T12:58:19.296Z,10.45
2023-12-08T13:00:47.905Z,19.17
2023-12-08T13:03:16.524Z,24.13
2023-12-08T13:05:49.742Z,18.90
2023-12-08T13:08:18.936Z,21.23
2023-12-08T13:10:47.418Z,18.45
2023-12-08T13:13:14.952Z,23.77
2023-12-08T13:15:43.261Z,34.08
2023-12-08T13:18:11.428Z,22.85
2023-12-08T13:20:40.154Z,21.05
2023-12-08T13:23:09.407Z,25.70
2023-12-08T13:25:37.847Z,20.58
2023-12-08T13:28:06.007Z,17.27
2023-12-08T13:30:33.977Z,44.40
2023-12-08T13:33:04.758Z,31.75
2023-12-08T13:35:34.596Z,25.43
2023-12-08T13:38:02.403Z,17.47
2023-12-08T13:40:31.410Z,21.92
2023-12-08T13:42:59.098Z,13.57
2023-12-08T13:45:27.015Z,20.40
2023-12-08T13:47:55.027Z,23.83
2023-12-08T13:50:22.674Z,24.43
2023-12-08T13:52:50.796Z,21.10
2023-12-08T13:55:18.542Z,14.30
2023-12-08T13:57:47.403Z,21.58
2023-12-08T14:00:17.372Z,24.63
2023-12-08T14:02:45.465Z,18.40
2023-12-08T14:05:13.241Z,23.00
2023-12-08T14:07:41.821Z,19.83
2023-12-08T14:10:10.801Z,26.92
2023-12-08T14:12:38.322Z,32.87
2023-12-08T14:18:20.817Z,31.20
2023-12-08T14:20:48.735Z,19.83
2023-12-08T14:23:16.249Z,32.65
2023-12-08T14:25:43.771Z,28.03
2023-12-08T14:28:11.275Z,16.97
2023-12-08T14:30:40.169Z,29.27
2023-12-08T14:33:07.832Z,21.40
2023-12-08T14:35:36.298Z,26.88
2023-12-08T14:38:05.274Z,22.70
2023-12-08T14:40:34.193Z,26.35
2023-12-08T14:43:01.979Z,15.07
2023-12-08T14:45:29.905Z,36.13
2023-12-08T14:47:58.913Z,34.63
2023-12-08T14:50:26.477Z,21.27
2023-12-08T14:52:54.366Z,30.48
2023-12-08T14:55:21.880Z,18.50
2023-12-08T14:57:49.391Z,19.93
2023-12-08T15:00:17.594Z,14.40
2023-12-08T15:02:45.573Z,20.30
2023-12-08T15:05:14.658Z,25.52
2023-12-08T15:07:42.544Z,28.57
2023-12-08T15:10:10.377Z,20.13
2023-12-08T15:12:38.230Z,29.55
2023-12-08T15:15:06.315Z,34.63
2023-12-08T15:17:35.241Z,23.00
2023-12-08T15:20:04.825Z,24.30
2023-12-08T15:22:34.541Z,27.20
2023-12-08T15:25:02.113Z,17.53
2023-12-08T15:27:30.411Z,28.67
2023-12-08T15:29:58.382Z,25.77
2023-12-08T15:32:26.297Z,38.33
2023-12-08T15:34:53.931Z,21.33
2023-12-08T15:37:21.463Z,30.57
2023-12-08T15:39:50.614Z,27.23
2023-12-08T15:42:18.284Z,24.38
2023-12-08T15:44:45.902Z,23.48
2023-12-08T15:47:14.037Z,26.23
2023-12-08T15:49:42.328Z,27.27
2023-12-08T15:52:25.592Z,25.13
2023-12-08T15:54:54.462Z,21.63
2023-12-08T15:57:22.084Z,19.42
2023-12-08T15:59:49.671Z,38.70
2023-12-08T16:02:17.167Z,35.23
2023-12-08T16:04:44.683Z,33.40
2023-12-08T16:07:12.180Z,44.50
2023-12-08T16:09:43.504Z,24.60
2023-12-08T16:12:13.000Z,32.33
2023-12-08T16:14:43.193Z,28.70
2023-12-08T16:17:10.887Z,38.73
2023-12-08T16:19:38.584Z,27.10
2023-12-08T16:22:06.228Z,23.77
2023-12-08T16:24:33.746Z,22.07
2023-12-08T16:27:01.355Z,29.40
2023-12-08T16:29:30.253Z,35.93
2023-12-08T16:31:57.766Z,31.23
2023-12-08T16:34:25.801Z,20.10
2023-12-08T16:36:53.509Z,22.40
2023-12-08T16:39:23.825Z,20.70
2023-12-08T16:41:51.651Z,28.67
2023-12-08T16:44:20.052Z,18.40
2023-12-08T16:46:48.919Z,26.00
2023-12-08T16:49:16.650Z,19.08
2023-12-08T16:51:44.664Z,19.50
2023-12-08T16:54:12.170Z,22.67
2023-12-08T16:56:39.718Z,35.20
2023-12-08T16:59:07.234Z,27.73
2023-12-08T17:01:34.880Z,16.97
2023-12-08T17:04:03.911Z,27.20
2023-12-08T17:06:31.627Z,15.83
2023-12-08T17:08:59.277Z,26.10
2023-12-08T17:11:26.815Z,24.02
2023-12-08T17:13:55.089Z,27.10
2023-12-08T17:16:23.186Z,19.52
2023-12-08T17:18:50.880Z,14.27
2023-12-08T17:21:20.169Z,19.77
2023-12-08T17:23:47.907Z,14.63
2023-12-08T17:26:19.736Z,30.47
2023-12-08T17:28:53.112Z,18.23
2023-12-08T17:31:20.675Z,24.17
2023-12-08T17:33:48.365Z,20.67
2023-12-08T17:36:16.060Z,18.30
2023-12-08T17:38:45.033Z,27.57
2023-12-08T17:41:12.617Z,26.88
2023-12-08T17:43:40.151Z,22.00
2023-12-08T17:46:09.742Z,13.50
2023-12-08T17:48:38.911Z,18.23
2023-12-08T17:51:06.880Z,16.47
2023-12-08T17:53:34.989Z,19.30
2023-12-08T17:56:05.516Z,25.80
2023-12-08T17:58:33.070Z,27.23
2023-12-08T18:01:00.611Z,16.73
2023-12-08T18:03:29.727Z,10.87
2023-12-08T18:05:57.633Z,22.77
2023-12-08T18:08:25.269Z,28.70
2023-12-08T18:10:52.824Z,23.27
2023-12-08T18:13:21.730Z,16.42
2023-12-08T18:15:49.285Z,25.37
2023-12-08T18:18:16.944Z,19.27
2023-12-08T18:20:45.024Z,20.23
2023-12-08T18:23:15.148Z,15.30
2023-12-08T18:25:42.814Z,27.67
2023-12-08T18:28:38.396Z,21.97
2023-12-08T18:31:00.333Z,19.13
2023-12-08T18:33:27.963Z,22.70
2023-12-08T18:35:55.822Z,20.50
2023-12-08T18:38:23.347Z,14.40
2023-12-08T18:40:50.897Z,25.73
2023-12-08T18:43:18.386Z,17.93
2023-12-08T18:45:46.022Z,36.73
2023-12-08T18:48:15.140Z,27.67
2023-12-08T18:50:42.968Z,22.30
2023-12-08T18:53:10.499Z,17.40
2023-12-08T18:55:38.046Z,19.63
2023-12-08T18:58:08.086Z,29.20
2023-12-08T19:00:36.075Z,25.10
2023-12-08T19:03:03.967Z,22.50
2023-12-08T19:05:36.750Z,20.50
2023-12-08T19:08:05.051Z,24.67
2023-12-08T19:10:32.617Z,15.00
2023-12-08T19:13:00.213Z,19.20
2023-12-08T19:15:27.869Z,21.95
2023-12-08T19:17:55.629Z,27.63
2023-12-08T19:20:23.275Z,20.40
2023-12-08T19:22:52.890Z,21.67
2023-12-08T19:25:20.407Z,31.83
2023-12-08T19:27:47.994Z,17.90
2023-12-08T19:30:15.787Z,21.53
2023-12-08T19:32:43.356Z,19.43
2023-12-08T19:35:11.026Z,26.65
2023-12-08T19:37:38.649Z,27.60
2023-12-08T19:40:09.320Z,23.85
2023-12-08T19:42:37.127Z,10.80
2023-12-08T19:45:05.609Z,16.27
2023-12-08T19:47:42.905Z,20.60
2023-12-08T19:50:12.340Z,15.40
2023-12-08T19:52:39.854Z,22.85
2023-12-08T19:55:09.520Z,27.33
2023-12-08T19:57:37.173Z,19.83
2023-12-08T20:00:06.203Z,29.30
2023-12-08T20:02:36.560Z,28.67
2023-12-08T20:05:05.157Z,23.43
2023-12-08T20:07:32.905Z,27.33
2023-12-08T20:10:00.734Z,16.23
2023-12-08T20:12:29.917Z,20.27
2023-12-08T20:14:57.577Z,22.10
2023-12-08T20:17:25.094Z,23.97
2023-12-08T20:19:53.457Z,13.37
2023-12-08T20:22:21.772Z,14.52
2023-12-08T20:24:49.948Z,19.80
2023-12-08T20:27:18.121Z,28.17
2023-12-08T20:29:47.250Z,21.23
2023-12-08T20:32:14.785Z,28.83
2023-12-08T20:34:43.713Z,19.70
2023-12-08T20:37:11.348Z,22.23
2023-12-08T20:39:39.008Z,14.70
2023-12-08T20:42:07.455Z,20.73
2023-12-08T20:44:35.075Z,35.57
2023-12-08T20:47:03.994Z,19.23
2023-12-08T20:49:31.688Z,25.77
2023-12-08T20:51:59.404Z,45.30
2023-12-08T20:54:27.035Z,34.25
2023-12-08T20:56:54.642Z,22.80
2023-12-08T20:59:22.345Z,34.60
2023-12-08T21:01:49.986Z,25.83
2023-12-08T21:04:19.038Z,28.07
2023-12-08T21:06:46.772Z,18.57
2023-12-08T21:09:14.682Z,27.67
2023-12-08T21:11:42.733Z,31.53
2023-12-08T21:14:10.705Z,19.03
2023-12-08T21:16:39.861Z,24.40
2023-12-08T21:19:07.781Z,26.40
2023-12-08T21:21:37.525Z,26.80
2023-12-08T21:24:05.827Z,34.77
2023-12-08T21:26:33.533Z,20.80
2023-12-08T21:29:01.664Z,35.30
2023-12-08T21:31:29.269Z,30.77
2023-12-08T21:33:58.343Z,25.27
2023-12-08T21:36:26.545Z,31.98
2023-12-08T21:38:55.427Z,19.60
2023-12-08T21:41:23.085Z,28.23
2023-12-08T21:43:50.586Z,29.70
2023-12-08T21:46:18.109Z,31.23
2023-12-08T21:48:45.769Z,36.50
2023-12-08T21:51:13.409Z,26.43
2023-12-08T21:53:41.065Z,30.77
2023-12-08T21:56:10.074Z,29.00
2023-12-08T21:58:37.619Z,37.25
2023-12-08T22:01:06.741Z,31.93
2023-12-08T22:03:34.489Z,26.07
2023-12-08T22:06:02.020Z,34.70
2023-12-08T22:08:29.622Z,42.63
2023-12-08T22:10:57.171Z,22.40
2023-12-08T22:13:26.086Z,17.20
2023-12-08T22:15:53.583Z,25.60
2023-12-08T22:18:21.404Z,25.02
2023-12-08T22:20:49.020Z,29.23
2023-12-08T22:23:16.598Z,20.30
2023-12-08T22:25:44.126Z,23.90
2023-12-08T22:28:12.893Z,22.83
2023-12-08T22:30:42.090Z,20.70
2023-12-08T22:33:09.758Z,17.80
2023-12-08T22:35:37.384Z,26.23
2023-12-08T22:38:05.093Z,23.47
2023-12-08T22:40:32.685Z,25.30
2023-12-08T22:43:00.276Z,17.50
2023-12-08T22:45:27.874Z,13.40
2023-12-08T22:47:56.988Z,22.10
2023-12-08T22:50:29.377Z,16.63
2023-12-08T22:53:03.420Z,16.43
2023-12-08T22:55:30.984Z,25.87
2023-12-08T22:57:58.943Z,29.45
2023-12-08T23:00:27.142Z,18.23
2023-12-08T23:02:55.254Z,21.50
2023-12-08T23:05:24.490Z,17.87
2023-12-08T23:07:52.010Z,17.17
2023-12-08T23:10:19.735Z,22.33
2023-12-08T23:12:47.242Z,16.00
2023-12-08T23:15:15.367Z,22.83
2023-12-08T23:17:42.979Z,14.90
2023-12-08T23:20:12.207Z,19.33
2023-12-08T23:22:41.058Z,15.47
2023-12-08T23:25:08.882Z,16.17
2023-12-08T23:27:36.410Z,20.23
2023-12-08T23:30:06.018Z,28.17
2023-12-08T23:32:34.224Z,22.57
2023-12-08T23:35:04.717Z,21.47
2023-12-08T23:37:34.662Z,24.40
2023-12-08T23:40:03.545Z,17.87
2023-12-08T23:42:31.908Z,18.10
2023-12-08T23:44:59.750Z,16.80
2023-12-08T23:47:27.501Z,22.03
2023-12-08T23:49:55.095Z,18.20
2023-12-08T23:52:22.618Z,17.13
2023-12-08T23:54:50.180Z,23.13
2023-12-08T23:57:19.090Z,13.13
2023-12-08T23:59:46.647Z,14.90
